sensor_id;sensor_type;location;lat;lon;timestamp;P1;durP1;ratioP1;P2;durP2;ratioP2
22107;SDS011;11220;48.812;9.128;2022-08-19T03:03:17;7.55;;;4.40;;
22107;SDS011;11220;48.812;9.128;2022-08-19T03:05:44;7.10;;;4.18;;
22107;SDS011;11220;48.812;9.128;2022-08-19T03:08:10;6.28;;;3.78;;
22107;SDS011;11220;48.812;9.128;2022-08-19T03:10:41;5.40;;;3.97;;
22107;SDS011;11220;48.812;9.128;2022-08-19T03:13:09;5.78;;;4.05;;
22107;SDS011;11220;48.812;9.128;2022-08-19T03:15:38;6.60;;;4.68;;
22107;SDS011;11220;48.812;9.128;2022-08-19T03:18:05;6.75;;;4.50;;
22107;SDS011;11220;48.812;9.128;2022-08-19T03:20:30;6.45;;;4.20;;
22107;SDS011;11220;48.812;9.128;2022-08-19T03:22:56;5.63;;;3.88;;
22107;SDS011;11220;48.812;9.128;2022-08-19T03:25:22;6.18;;;3.80;;
22107;SDS011;11220;48.812;9.128;2022-08-19T03:27:47;6.30;;;4.35;;
22107;SDS011;11220;48.812;9.128;2022-08-19T03:30:13;5.75;;;4.10;;
22107;SDS011;11220;48.812;9.128;2022-08-19T03:32:39;5.28;;;4.28;;
22107;SDS011;11220;48.812;9.128;2022-08-19T03:35:05;6.25;;;4.22;;
22107;SDS011;11220;48.812;9.128;2022-08-19T03:37:31;5.53;;;4.25;;
22107;SDS011;11220;48.812;9.128;2022-08-19T03:39:57;5.72;;;3.78;;
22107;SDS011;11220;48.812;9.128;2022-08-19T03:42:22;6.55;;;4.18;;
22107;SDS011;11220;48.812;9.128;2022-08-19T03:44:48;5.07;;;3.90;;
22107;SDS011;11220;48.812;9.128;2022-08-19T03:47:13;6.38;;;4.25;;
22107;SDS011;11220;48.812;9.128;2022-08-19T03:49:41;6.75;;;4.80;;
22107;SDS011;11220;48.812;9.128;2022-08-19T03:52:07;5.90;;;3.72;;
22107;SDS011;11220;48.812;9.128;2022-08-19T03:54:33;6.18;;;4.50;;
22107;SDS011;11220;48.812;9.128;2022-08-19T03:56:59;6.45;;;4.45;;
22107;SDS011;11220;48.812;9.128;2022-08-19T03:59:26;6.32;;;4.32;;
22107;SDS011;11220;48.812;9.128;2022-08-19T04:04:21;6.10;;;4.22;;
22107;SDS011;11220;48.812;9.128;2022-08-19T04:06:47;7.57;;;4.60;;
22107;SDS011;11220;48.812;9.128;2022-08-19T04:09:13;6.53;;;4.55;;
22107;SDS011;11220;48.812;9.128;2022-08-19T04:11:44;6.18;;;4.82;;
22107;SDS011;11220;48.812;9.128;2022-08-19T04:14:19;7.45;;;4.72;;
22107;SDS011;11220;48.812;9.128;2022-08-19T04:16:47;7.10;;;5.03;;
22107;SDS011;11220;48.812;9.128;2022-08-19T04:19:14;7.57;;;5.00;;
22107;SDS011;11220;48.812;9.128;2022-08-19T04:21:42;6.15;;;4.53;;
22107;SDS011;11220;48.812;9.128;2022-08-19T04:24:10;6.88;;;4.57;;
22107;SDS011;11220;48.812;9.128;2022-08-19T04:26:36;5.68;;;4.45;;
22107;SDS011;11220;48.812;9.128;2022-08-19T04:29:06;7.15;;;4.75;;
22107;SDS011;11220;48.812;9.128;2022-08-19T04:31:33;6.15;;;4.63;;
22107;SDS011;11220;48.812;9.128;2022-08-19T04:34:01;6.38;;;4.78;;
22107;SDS011;11220;48.812;9.128;2022-08-19T04:36:32;5.85;;;4.00;;
22107;SDS011;11220;48.812;9.128;2022-08-19T04:39:00;5.72;;;4.57;;
22107;SDS011;11220;48.812;9.128;2022-08-19T04:41:28;7.57;;;4.88;;
22107;SDS011;11220;48.812;9.128;2022-08-19T04:44:15;8.25;;;5.38;;
22107;SDS011;11220;48.812;9.128;2022-08-19T04:46:49;6.82;;;5.10;;
22107;SDS011;11220;48.812;9.128;2022-08-19T04:49:16;6.68;;;4.78;;
22107;SDS011;11220;48.812;9.128;2022-08-19T04:51:50;6.80;;;4.85;;
22107;SDS011;11220;48.812;9.128;2022-08-19T04:56:47;7.22;;;5.22;;
22107;SDS011;11220;48.812;9.128;2022-08-19T04:59:17;6.68;;;4.60;;
22107;SDS011;11220;48.812;9.128;2022-08-19T05:01:44;6.78;;;4.88;;
22107;SDS011;11220;48.812;9.128;2022-08-19T05:04:15;7.07;;;4.85;;
22107;SDS011;11220;48.812;9.128;2022-08-19T05:06:44;7.38;;;5.03;;
22107;SDS011;11220;48.812;9.128;2022-08-19T05:09:13;7.22;;;5.30;;
22107;SDS011;11220;48.812;9.128;2022-08-19T05:11:40;7.75;;;5.40;;
22107;SDS011;11220;48.812;9.128;2022-08-19T05:14:06;7.40;;;4.75;;
22107;SDS011;11220;48.812;9.128;2022-08-19T05:16:32;6.25;;;4.22;;
22107;SDS011;11220;48.812;9.128;2022-08-19T05:18:58;6.50;;;4.60;;
22107;SDS011;11220;48.812;9.128;2022-08-19T05:21:43;5.82;;;4.88;;
22107;SDS011;11220;48.812;9.128;2022-08-19T05:24:28;6.45;;;4.80;;
22107;SDS011;11220;48.812;9.128;2022-08-19T05:26:55;6.05;;;4.63;;
22107;SDS011;11220;48.812;9.128;2022-08-19T05:29:27;6.10;;;4.72;;
22107;SDS011;11220;48.812;9.128;2022-08-19T05:31:56;6.40;;;4.63;;
22107;SDS011;11220;48.812;9.128;2022-08-19T05:34:24;7.47;;;4.85;;
22107;SDS011;11220;48.812;9.128;2022-08-19T05:36:53;7.10;;;4.97;;
22107;SDS011;11220;48.812;9.128;2022-08-19T05:39:22;5.40;;;4.35;;
22107;SDS011;11220;48.812;9.128;2022-08-19T05:41:57;6.88;;;4.88;;
22107;SDS011;11220;48.812;9.128;2022-08-19T05:44:30;6.22;;;4.50;;
22107;SDS011;11220;48.812;9.128;2022-08-19T05:47:00;7.78;;;5.45;;
22107;SDS011;11220;48.812;9.128;2022-08-19T05:49:27;6.35;;;4.70;;
22107;SDS011;11220;48.812;9.128;2022-08-19T05:51:54;6.40;;;4.88;;
22107;SDS011;11220;48.812;9.128;2022-08-19T05:54:20;7.40;;;5.25;;
22107;SDS011;11220;48.812;9.128;2022-08-19T05:56:48;6.82;;;4.80;;
22107;SDS011;11220;48.812;9.128;2022-08-19T05:59:16;6.57;;;5.15;;
22107;SDS011;11220;48.812;9.128;2022-08-19T06:01:46;6.45;;;4.63;;
22107;SDS011;11220;48.812;9.128;2022-08-19T06:04:15;7.88;;;5.93;;
22107;SDS011;11220;48.812;9.128;2022-08-19T06:06:43;6.72;;;5.03;;
22107;SDS011;11220;48.812;9.128;2022-08-19T06:09:14;7.35;;;5.55;;
22107;SDS011;11220;48.812;9.128;2022-08-19T06:11:41;6.82;;;4.95;;
22107;SDS011;11220;48.812;9.128;2022-08-19T06:14:23;6.75;;;4.43;;
22107;SDS011;11220;48.812;9.128;2022-08-19T06:16:50;6.30;;;4.45;;
22107;SDS011;11220;48.812;9.128;2022-08-19T06:19:17;7.88;;;5.38;;
22107;SDS011;11220;48.812;9.128;2022-08-19T06:21:46;6.07;;;4.35;;
22107;SDS011;11220;48.812;9.128;2022-08-19T06:24:14;7.65;;;4.72;;
22107;SDS011;11220;48.812;9.128;2022-08-19T06:26:42;6.32;;;4.30;;
22107;SDS011;11220;48.812;9.128;2022-08-19T06:29:09;5.57;;;4.15;;
22107;SDS011;11220;48.812;9.128;2022-08-19T06:31:36;6.82;;;4.32;;
22107;SDS011;11220;48.812;9.128;2022-08-19T06:34:05;6.20;;;4.57;;
22107;SDS011;11220;48.812;9.128;2022-08-19T06:36:33;6.40;;;4.60;;
22107;SDS011;11220;48.812;9.128;2022-08-19T06:39:10;6.47;;;4.70;;
22107;SDS011;11220;48.812;9.128;2022-08-19T06:41:41;7.47;;;5.00;;
22107;SDS011;11220;48.812;9.128;2022-08-19T06:44:13;7.00;;;4.38;;
22107;SDS011;11220;48.812;9.128;2022-08-19T06:46:39;6.18;;;4.38;;
22107;SDS011;11220;48.812;9.128;2022-08-19T06:49:06;5.95;;;4.40;;
22107;SDS011;11220;48.812;9.128;2022-08-19T06:51:36;6.47;;;4.63;;
22107;SDS011;11220;48.812;9.128;2022-08-19T06:54:02;6.90;;;5.22;;
22107;SDS011;11220;48.812;9.128;2022-08-19T06:56:29;6.85;;;4.32;;
22107;SDS011;11220;48.812;9.128;2022-08-19T06:58:59;6.78;;;4.43;;
22107;SDS011;11220;48.812;9.128;2022-08-19T07:01:26;6.88;;;4.72;;
22107;SDS011;11220;48.812;9.128;2022-08-19T07:03:52;7.32;;;5.20;;
22107;SDS011;11220;48.812;9.128;2022-08-19T07:06:18;7.30;;;5.00;;
22107;SDS011;11220;48.812;9.128;2022-08-19T07:08:45;6.95;;;4.95;;
22107;SDS011;11220;48.812;9.128;2022-08-19T07:11:13;6.07;;;4.50;;
22107;SDS011;11220;48.812;9.128;2022-08-19T07:13:42;7.55;;;4.95;;
22107;SDS011;11220;48.812;9.128;2022-08-19T07:16:13;7.90;;;5.32;;
22107;SDS011;11220;48.812;9.128;2022-08-19T07:18:42;6.47;;;4.22;;
22107;SDS011;11220;48.812;9.128;2022-08-19T07:21:18;7.45;;;5.38;;
22107;SDS011;11220;48.812;9.128;2022-08-19T07:23:47;7.03;;;4.60;;
22107;SDS011;11220;48.812;9.128;2022-08-19T07:26:15;8.25;;;5.47;;
22107;SDS011;11220;48.812;9.128;2022-08-19T07:28:46;6.53;;;5.03;;
22107;SDS011;11220;48.812;9.128;2022-08-19T07:31:15;7.63;;;4.85;;
22107;SDS011;11220;48.812;9.128;2022-08-19T07:33:43;8.30;;;5.43;;
22107;SDS011;11220;48.812;9.128;2022-08-19T07:36:10;7.18;;;4.75;;
22107;SDS011;11220;48.812;9.128;2022-08-19T07:38:37;8.65;;;5.15;;
22107;SDS011;11220;48.812;9.128;2022-08-19T07:41:05;6.55;;;5.15;;
22107;SDS011;11220;48.812;9.128;2022-08-19T07:43:31;7.13;;;5.13;;
22107;SDS011;11220;48.812;9.128;2022-08-19T07:45:57;6.38;;;4.90;;
22107;SDS011;11220;48.812;9.128;2022-08-19T07:48:24;6.22;;;4.18;;
22107;SDS011;11220;48.812;9.128;2022-08-19T07:50:53;7.40;;;4.90;;
22107;SDS011;11220;48.812;9.128;2022-08-19T07:53:19;7.78;;;5.50;;
22107;SDS011;11220;48.812;9.128;2022-08-19T07:55:56;6.95;;;4.78;;
22107;SDS011;11220;48.812;9.128;2022-08-19T07:58:29;6.05;;;4.28;;
22107;SDS011;11220;48.812;9.128;2022-08-19T08:00:56;6.53;;;4.97;;
22107;SDS011;11220;48.812;9.128;2022-08-19T08:03:23;6.35;;;4.28;;
22107;SDS011;11220;48.812;9.128;2022-08-19T08:06:10;6.00;;;4.38;;
22107;SDS011;11220;48.812;9.128;2022-08-19T08:08:57;6.10;;;4.53;;
22107;SDS011;11220;48.812;9.128;2022-08-19T08:11:36;7.40;;;4.93;;
22107;SDS011;11220;48.812;9.128;2022-08-19T08:14:14;7.30;;;4.63;;
22107;SDS011;11220;48.812;9.128;2022-08-19T08:16:42;7.20;;;5.07;;
22107;SDS011;11220;48.812;9.128;2022-08-19T08:19:16;7.65;;;5.07;;
22107;SDS011;11220;48.812;9.128;2022-08-19T08:21:43;6.93;;;4.90;;
22107;SDS011;11220;48.812;9.128;2022-08-19T08:24:12;6.43;;;4.90;;
22107;SDS011;11220;48.812;9.128;2022-08-19T08:26:48;6.55;;;4.25;;
22107;SDS011;11220;48.812;9.128;2022-08-19T08:29:22;6.50;;;4.45;;
22107;SDS011;11220;48.812;9.128;2022-08-19T08:31:48;8.13;;;5.28;;
22107;SDS011;11220;48.812;9.128;2022-08-19T08:34:14;6.45;;;4.82;;
22107;SDS011;11220;48.812;9.128;2022-08-19T08:36:42;6.95;;;5.00;;
22107;SDS011;11220;48.812;9.128;2022-08-19T08:39:12;6.57;;;4.55;;
22107;SDS011;11220;48.812;9.128;2022-08-19T08:44:45;6.80;;;4.68;;
22107;SDS011;11220;48.812;9.128;2022-08-19T08:47:15;5.55;;;4.55;;
22107;SDS011;11220;48.812;9.128;2022-08-19T08:49:48;6.57;;;4.65;;
22107;SDS011;11220;48.812;9.128;2022-08-19T08:52:29;7.03;;;4.85;;
22107;SDS011;11220;48.812;9.128;2022-08-19T08:55:14;6.45;;;4.40;;
22107;SDS011;11220;48.812;9.128;2022-08-19T08:57:53;6.30;;;4.53;;
22107;SDS011;11220;48.812;9.128;2022-08-19T09:00:47;6.32;;;4.95;;
22107;SDS011;11220;48.812;9.128;2022-08-19T09:03:20;6.35;;;4.30;;
22107;SDS011;11220;48.812;9.128;2022-08-19T09:08:49;7.15;;;4.38;;
22107;SDS011;11220;48.812;9.128;2022-08-19T20:54:59;3.53;;;3.22;;
22107;SDS011;11220;48.812;9.128;2022-08-19T20:57:24;3.88;;;2.72;;
22107;SDS011;11220;48.812;9.128;2022-08-19T20:59:54;3.20;;;2.88;;
22107;SDS011;11220;48.812;9.128;2022-08-19T21:02:20;3.42;;;2.90;;
22107;SDS011;11220;48.812;9.128;2022-08-19T21:04:46;2.85;;;2.45;;
22107;SDS011;11220;48.812;9.128;2022-08-19T21:07:26;3.05;;;2.72;;
22107;SDS011;11220;48.812;9.128;2022-08-19T21:09:54;2.72;;;2.50;;
22107;SDS011;11220;48.812;9.128;2022-08-19T21:12:20;3.38;;;2.80;;
22107;SDS011;11220;48.812;9.128;2022-08-19T21:15:08;2.50;;;2.30;;
22107;SDS011;11220;48.812;9.128;2022-08-19T21:17:34;3.42;;;2.70;;
22107;SDS011;11220;48.812;9.128;2022-08-19T21:22:44;2.35;;;2.15;;
22107;SDS011;11220;48.812;9.128;2022-08-19T21:28:04;2.67;;;2.28;;
22107;SDS011;11220;48.812;9.128;2022-08-19T21:30:33;2.70;;;2.28;;
22107;SDS011;11220;48.812;9.128;2022-08-19T21:33:02;2.10;;;1.90;;
22107;SDS011;11220;48.812;9.128;2022-08-19T21:35:35;2.13;;;1.80;;
22107;SDS011;11220;48.812;9.128;2022-08-19T21:38:00;2.50;;;2.30;;
22107;SDS011;11220;48.812;9.128;2022-08-19T21:40:26;2.20;;;1.98;;
22107;SDS011;11220;48.812;9.128;2022-08-19T21:42:58;2.30;;;2.08;;
22107;SDS011;11220;48.812;9.128;2022-08-19T21:45:26;2.10;;;1.90;;
22107;SDS011;11220;48.812;9.128;2022-08-19T21:47:55;2.17;;;1.83;;
22107;SDS011;11220;48.812;9.128;2022-08-19T21:50:20;2.35;;;1.92;;
